Time;durP1;ratioP1;P1;durP2;ratioP2;P2;SDS_P1;SDS_P2;PMS_P1;PMS_P2;Temp;Humidity;BMP_temperature;BMP_pressure;BME280_temperature;BME280_humidity;BME280_pressure;Samples;Min_cycle;Max_cycle;Signal;HPM_P1;HPM_P2
2023/07/17 00:01:09;;;;;;;4.37;1.27;;;;;;;-145.18;100.00;46558.81;5073762;28;20056;-59
2023/07/17 00:03:34;;;;;;;4.63;1.07;;;;;;;-145.18;100.00;46554.91;5073133;28;20155;-59
2023/07/17 00:06:00;;;;;;;6.20;1.30;;;;;;;-145.18;100.00;46566.63;5073670;28;20039;-58
2023/07/17 00:08:25;;;;;;;3.80;1.20;;;;;;;-145.18;100.00;46560.78;5073129;28;20512;-58
2023/07/17 00:10:51;;;;;;;5.13;1.10;;;;;;;-145.18;100.00;46578.34;5071472;28;20016;-58
2023/07/17 00:13:16;;;;;;;3.03;1.13;;;;;;;-145.18;100.00;46566.63;5073558;28;20484;-58
2023/07/17 00:15:41;;;;;;;2.80;0.90;;;;;;;-145.18;100.00;46562.72;5073810;28;20028;-58
2023/07/17 00:18:07;;;;;;;3.90;1.17;;;;;;;-145.18;100.00;46556.88;5073521;28;20488;-59
2023/07/17 00:20:32;;;;;;;4.20;1.30;;;;;;;-145.18;100.00;46554.91;5073090;28;20120;-59
2023/07/17 00:22:58;;;;;;;7.67;1.03;;;;;;;-145.18;100.00;46558.81;5073196;28;20064;-59
2023/07/17 00:25:24;;;;;;;2.93;1.00;;;;;;;-145.18;100.00;46564.69;5073155;28;20134;-59
2023/07/17 00:27:49;;;;;;;3.80;1.10;;;;;;;-145.18;100.00;46562.72;5073288;28;20350;-59
2023/07/17 00:30:14;;;;;;;5.27;1.03;;;;;;;-145.18;100.00;46554.91;5073470;28;20056;-58
2023/07/17 00:32:40;;;;;;;4.07;0.90;;;;;;;-145.18;100.00;46556.88;5071273;28;20032;-59
2023/07/17 00:35:06;;;;;;;3.47;1.10;;;;;;;-145.18;100.00;46554.91;5071168;28;20560;-58
2023/07/17 00:37:32;;;;;;;5.00;1.10;;;;;;;-145.18;100.00;46568.59;5072857;28;20480;-59
2023/07/17 00:39:57;;;;;;;7.77;1.23;;;;;;;-145.18;100.00;46570.53;5073360;28;20107;-59
2023/07/17 00:42:22;;;;;;;4.83;1.60;;;;;;;-145.18;100.00;46551.00;5072963;28;20496;-58
2023/07/17 00:44:48;;;;;;;6.50;1.10;;;;;;;-145.18;100.00;46558.81;5072603;28;20040;-59
2023/07/17 00:47:13;;;;;;;8.20;1.50;;;;;;;-145.18;100.00;46558.81;5073019;28;20124;-58
2023/07/17 00:49:40;;;;;;;5.90;1.50;;;;;;;-145.18;100.00;46566.63;5072517;28;20385;-58
2023/07/17 00:52:08;;;;;;;5.00;1.53;;;;;;;-145.18;100.00;46564.69;5072692;28;20039;-59
2023/07/17 00:54:35;;;;;;;4.27;1.83;;;;;;;-145.18;100.00;46556.88;5073050;28;20036;-59
2023/07/17 00:57:03;;;;;;;7.23;1.30;;;;;;;-145.18;100.00;46554.91;5072106;28;20028;-58
2023/07/17 00:59:30;;;;;;;7.27;1.63;;;;;;;-145.18;100.00;46554.91;5072633;28;20028;-59
2023/07/17 01:01:56;;;;;;;7.87;1.90;;;;;;;-145.18;100.00;46554.91;5072593;28;20472;-58
2023/07/17 01:04:22;;;;;;;10.17;1.70;;;;;;;-145.18;100.00;46556.88;5072656;28;20051;-59
2023/07/17 01:06:47;;;;;;;4.73;1.57;;;;;;;-145.18;100.00;46562.72;5072801;28;20112;-59
2023/07/17 01:09:15;;;;;;;6.37;1.47;;;;;;;-145.18;100.00;46562.72;5071190;28;20059;-58
2023/07/17 01:11:40;;;;;;;4.13;1.20;;;;;;;-145.18;100.00;46560.78;5072605;28;20032;-58
2023/07/17 01:14:14;;;;;;;5.10;1.67;;;;;;;-145.18;100.00;46566.63;5072368;28;20039;-58
2023/07/17 01:16:40;;;;;;;5.23;1.17;;;;;;;-145.18;100.00;46564.69;5070952;28;20101;-59
2023/07/17 01:19:05;;;;;;;7.07;1.30;;;;;;;-145.18;100.00;46607.66;5072523;28;20491;-59
2023/07/17 01:21:35;;;;;;;4.13;1.50;;;;;;;-145.18;100.00;46609.59;5072448;28;20055;-59
2023/07/17 01:24:00;;;;;;;7.67;1.60;;;;;;;-145.18;100.00;46609.59;5070967;28;20134;-58
2023/07/17 01:26:26;;;;;;;6.53;1.40;;;;;;;-145.18;100.00;46615.47;5072115;28;20063;-58
2023/07/17 01:28:51;;;;;;;4.73;1.53;;;;;;;-145.18;100.00;46621.31;5072653;28;20373;-58
2023/07/17 01:31:17;;;;;;;6.43;1.57;;;;;;;-145.18;100.00;46623.28;5069374;28;20089;-59
2023/07/17 01:33:42;;;;;;;3.90;1.20;;;;;;;-145.18;100.00;46631.09;5054651;28;20047;-58
2023/07/17 01:36:08;;;;;;;3.07;1.40;;;;;;;-145.18;100.00;46642.81;5070499;28;20480;-58
2023/07/17 01:38:34;;;;;;;4.73;1.50;;;;;;;-145.18;100.00;46656.50;5071808;28;20036;-58
2023/07/17 01:40:59;;;;;;;7.37;1.70;;;;;;;-145.18;100.00;46660.41;5071436;28;20024;-59
2023/07/17 01:43:25;;;;;;;9.33;1.77;;;;;;;-145.18;100.00;46658.44;5071475;28;20585;-62
2023/07/17 01:45:50;;;;;;;5.33;1.57;;;;;;;-145.18;100.00;46666.25;5071830;28;20099;-62
2023/07/17 01:48:17;;;;;;;9.57;1.87;;;;;;;-145.18;100.00;46674.06;5071518;28;20400;-63
2023/07/17 01:50:45;;;;;;;4.30;1.40;;;;;;;-145.18;100.00;46685.78;5070447;28;20017;-63
2023/07/17 01:53:11;;;;;;;6.97;1.63;;;;;;;-145.18;100.00;46695.56;5071773;28;20036;-63
2023/07/17 01:55:37;;;;;;;6.13;1.50;;;;;;;-145.18;100.00;46691.66;5071195;28;20518;-62
2023/07/17 01:58:02;;;;;;;4.13;1.50;;;;;;;-145.18;100.00;46697.50;5071348;28;20107;-63
2023/07/17 02:00:28;;;;;;;7.27;1.80;;;;;;;-145.18;100.00;46697.50;5071385;28;20035;-62
2023/07/17 02:02:53;;;;;;;4.43;1.60;;;;;;;-145.18;100.00;46697.50;5071293;28;20617;-62
2023/07/17 02:05:18;;;;;;;8.43;1.57;;;;;;;-145.18;100.00;46687.75;5070782;28;20047;-62
2023/07/17 02:07:44;;;;;;;9.63;1.90;;;;;;;-145.18;100.00;46693.59;5053294;28;20130;-62
2023/07/17 02:10:10;;;;;;;3.57;1.53;;;;;;;-145.18;100.00;46689.69;5071607;28;20036;-62
2023/07/17 02:12:35;;;;;;;6.60;1.73;;;;;;;-145.18;100.00;46691.66;5071293;28;20032;-62
2023/07/17 02:15:01;;;;;;;3.90;1.40;;;;;;;-145.18;100.00;46679.94;5071027;28;20126;-63
2023/07/17 02:17:27;;;;;;;7.00;1.60;;;;;;;-145.18;100.00;46685.78;5071607;28;20035;-63
2023/07/17 02:19:52;;;;;;;6.57;1.90;;;;;;;-145.18;100.00;46681.88;5070943;28;20032;-63
2023/07/17 02:22:17;;;;;;;11.57;1.93;;;;;;;-145.18;100.00;46683.84;5071448;28;20040;-62
2023/07/17 02:24:43;;;;;;;6.20;1.43;;;;;;;-145.18;100.00;46676.03;5071124;28;20515;-62
2023/07/17 02:27:08;;;;;;;7.80;2.17;;;;;;;-145.18;100.00;46668.22;5069938;28;20043;-62
2023/07/17 02:29:34;;;;;;;10.13;1.90;;;;;;;-145.18;100.00;46656.50;5071227;28;20117;-62
2023/07/17 02:31:59;;;;;;;7.43;2.00;;;;;;;-145.18;100.00;46662.34;5070929;28;20078;-62
2023/07/17 02:34:24;;;;;;;7.13;2.10;;;;;;;-145.18;100.00;46660.41;5069908;28;20071;-63
2023/07/17 02:36:53;;;;;;;5.43;1.77;;;;;;;-145.18;100.00;46662.34;5071070;28;20021;-62
2023/07/17 02:39:18;;;;;;;13.30;2.30;;;;;;;-145.18;100.00;46658.44;5071000;28;20028;-62
2023/07/17 02:41:44;;;;;;;8.27;2.07;;;;;;;-145.18;100.00;46654.53;5071071;28;20043;-62
2023/07/17 02:44:09;;;;;;;9.10;2.20;;;;;;;-145.18;100.00;46656.50;5070384;28;20036;-62
2023/07/17 02:46:34;;;;;;;9.60;2.10;;;;;;;-145.18;100.00;46658.44;5070879;28;20040;-63
2023/07/17 02:49:00;;;;;;;7.47;1.53;;;;;;;-145.18;100.00;46656.50;5069388;28;20077;-63
2023/07/17 02:51:25;;;;;;;3.77;1.60;;;;;;;-145.18;100.00;46656.50;5070980;28;20077;-62
2023/07/17 02:53:51;;;;;;;7.43;1.90;;;;;;;-145.18;100.00;46652.59;5070808;28;20381;-59
2023/07/17 02:56:16;;;;;;;9.10;2.47;;;;;;;-145.18;100.00;46656.50;5069558;28;20162;-58
2023/07/17 02:58:48;;;;;;;11.87;2.27;;;;;;;-145.18;100.00;46650.63;5067622;28;20056;-59
2023/07/17 03:01:14;;;;;;;4.60;2.00;;;;;;;-145.18;100.00;46652.59;5070627;28;20028;-59
2023/07/17 03:03:39;;;;;;;8.03;1.73;;;;;;;-145.18;100.00;46656.50;5070717;28;20027;-59
2023/07/17 03:06:05;;;;;;;6.47;2.10;;;;;;;-145.18;100.00;46648.69;5070866;28;20024;-59
2023/07/17 03:08:30;;;;;;;10.80;2.67;;;;;;;-145.18;100.00;46648.69;5070611;28;20036;-59
2023/07/17 03:10:55;;;;;;;5.93;2.10;;;;;;;-145.18;100.00;46646.72;5070273;28;20397;-58
2023/07/17 03:13:21;;;;;;;4.47;1.97;;;;;;;-145.18;100.00;46648.69;5070823;28;20103;-59
2023/07/17 03:15:49;;;;;;;5.73;2.13;;;;;;;-145.18;100.00;46650.63;5070632;28;20036;-59
2023/07/17 03:18:15;;;;;;;6.63;2.07;;;;;;;-145.18;100.00;46654.53;5070698;28;20043;-58
2023/07/17 03:20:44;;;;;;;8.53;2.17;;;;;;;-145.18;100.00;46652.59;5073499;28;20028;-58
2023/07/17 03:23:10;;;;;;;9.17;2.40;;;;;;;-145.18;100.00;46650.63;5073803;28;20109;-59
2023/07/17 03:25:35;;;;;;;6.30;2.13;;;;;;;-145.18;100.00;46648.69;5073181;28;20040;-58
2023/07/17 03:28:02;;;;;;;10.83;3.13;;;;;;;-145.18;100.00;46650.63;5073056;28;20032;-58
2023/07/17 03:30:27;;;;;;;10.47;3.03;;;;;;;-145.18;100.00;46648.69;5071165;28;20365;-58
2023/07/17 03:32:53;;;;;;;11.20;2.33;;;;;;;-145.18;100.00;46648.69;5074128;28;20081;-59
2023/07/17 03:35:18;;;;;;;8.37;2.30;;;;;;;-145.18;100.00;46646.72;5073950;28;20028;-59
2023/07/17 03:37:43;;;;;;;7.63;2.53;;;;;;;-145.18;100.00;46646.72;5073755;28;20157;-59
2023/07/17 03:40:12;;;;;;;7.73;2.27;;;;;;;-145.18;100.00;46642.81;5073850;28;20039;-58
2023/07/17 03:42:37;;;;;;;13.40;2.53;;;;;;;-145.18;100.00;46650.63;5073542;28;20490;-59
2023/07/17 03:45:04;;;;;;;9.17;2.83;;;;;;;-145.18;100.00;46642.81;5074214;28;20028;-58
2023/07/17 03:47:30;;;;;;;9.17;2.23;;;;;;;-145.18;100.00;46642.81;5073360;28;20690;-58
2023/07/17 03:49:56;;;;;;;9.27;2.60;;;;;;;-145.18;100.00;46644.78;5072332;28;20480;-58
2023/07/17 03:52:21;;;;;;;9.67;3.03;;;;;;;-145.18;100.00;46646.72;5070645;28;20036;-58
2023/07/17 03:54:47;;;;;;;6.77;2.13;;;;;;;-145.18;100.00;46640.88;5072661;28;20031;-59
2023/07/17 03:57:12;;;;;;;5.70;2.60;;;;;;;-145.18;100.00;46648.69;5072567;28;20099;-58
2023/07/17 03:59:50;;;;;;;8.40;3.10;;;;;;;-145.18;100.00;46646.72;5073594;28;20028;-58
2023/07/17 04:02:16;;;;;;;9.37;3.07;;;;;;;-145.18;100.00;46644.78;5071075;28;20081;-63
2023/07/17 04:04:41;;;;;;;11.53;3.33;;;;;;;-145.18;100.00;46642.81;5072137;28;20539;-63
2023/07/17 04:07:07;;;;;;;8.53;3.20;;;;;;;-145.18;100.00;46650.63;5073608;28;20035;-62
2023/07/17 04:09:32;;;;;;;10.03;3.17;;;;;;;-145.18;100.00;46644.78;5067162;28;20037;-62
2023/07/17 04:11:57;;;;;;;11.23;3.70;;;;;;;-145.18;100.00;46644.78;5068625;28;20484;-63
2023/07/17 04:14:23;;;;;;;12.23;3.10;;;;;;;-145.18;100.00;46642.81;5073086;28;20067;-62
2023/07/17 04:16:48;;;;;;;7.03;2.97;;;;;;;-145.18;100.00;46638.91;5073085;28;20111;-63
2023/07/17 04:19:13;;;;;;;10.53;3.73;;;;;;;-145.18;100.00;46646.72;5071123;28;20033;-62
2023/07/17 04:21:39;;;;;;;10.93;3.50;;;;;;;-145.18;100.00;46642.81;5072974;28;20416;-63
2023/07/17 04:24:04;;;;;;;13.27;3.73;;;;;;;-145.18;100.00;46642.81;5073032;28;20075;-62
2023/07/17 04:26:30;;;;;;;9.13;3.77;;;;;;;-145.18;100.00;46644.78;5072766;28;20024;-63
2023/07/17 04:28:55;;;;;;;11.27;3.93;;;;;;;-145.18;100.00;46642.81;5071883;28;20044;-62
2023/07/17 04:31:21;;;;;;;11.67;3.30;;;;;;;-145.18;100.00;46644.78;5072339;28;20078;-62
2023/07/17 04:33:46;;;;;;;11.10;3.63;;;;;;;-145.18;100.00;46646.72;5072938;28;20423;-63
2023/07/17 04:36:11;;;;;;;11.50;3.77;;;;;;;-145.18;100.00;46648.69;5071518;28;20074;-62
2023/07/17 04:38:37;;;;;;;10.17;3.87;;;;;;;-145.18;100.00;46646.72;5057557;28;20500;-63
2023/07/17 04:41:03;;;;;;;16.87;4.30;;;;;;;-145.18;100.00;46648.69;5070696;28;20067;-63
2023/07/17 04:43:28;;;;;;;11.90;3.87;;;;;;;-145.18;100.00;46648.69;5070110;28;20040;-63
2023/07/17 04:45:53;;;;;;;12.13;4.00;;;;;;;-145.18;100.00;46654.53;5074765;28;20036;-63
2023/07/17 04:48:19;;;;;;;12.27;4.40;;;;;;;-145.18;100.00;46648.69;5072585;28;20032;-62
2023/07/17 04:50:45;;;;;;;20.80;4.30;;;;;;;-145.18;100.00;46650.63;5073059;28;20052;-64
2023/07/17 04:53:10;;;;;;;15.03;4.30;;;;;;;-145.18;100.00;46654.53;5071932;28;20499;-62
2023/07/17 04:55:36;;;;;;;17.33;4.67;;;;;;;-145.18;100.00;46650.63;5070816;28;20052;-62
2023/07/17 04:58:01;;;;;;;9.67;4.30;;;;;;;-145.18;100.00;46654.53;5067674;28;20067;-65
2023/07/17 05:00:27;;;;;;;15.77;4.67;;;;;;;-145.18;100.00;46652.59;5072194;28;20028;-65
2023/07/17 05:02:52;;;;;;;10.77;4.67;;;;;;;-145.18;100.00;46650.63;5073560;28;20490;-62
2023/07/17 05:05:18;;;;;;;12.47;5.20;;;;;;;-145.18;100.00;46650.63;5068345;28;20021;-65
2023/07/17 05:07:43;;;;;;;16.37;5.87;;;;;;;-145.18;100.00;46660.41;5072241;28;20024;-64
2023/07/17 05:10:10;;;;;;;15.37;5.10;;;;;;;-145.18;100.00;46656.50;5064381;28;20033;-64
2023/07/17 05:12:36;;;;;;;14.87;4.67;;;;;;;-145.18;100.00;46656.50;5072355;28;20040;-64
2023/07/17 05:15:01;;;;;;;17.73;5.37;;;;;;;-145.18;100.00;46654.53;5064374;28;20543;-64
2023/07/17 05:17:27;;;;;;;15.23;4.10;;;;;;;-145.18;100.00;46654.53;5069470;28;20047;-64
2023/07/17 05:19:52;;;;;;;17.20;5.03;;;;;;;-145.18;100.00;46658.44;5068130;28;20029;-64
2023/07/17 05:22:17;;;;;;;15.30;5.07;;;;;;;-145.18;100.00;46652.59;5070438;28;20522;-64
2023/07/17 05:24:43;;;;;;;12.23;5.03;;;;;;;-145.18;100.00;46658.44;5070684;28;20024;-64
2023/07/17 05:27:08;;;;;;;16.80;5.47;;;;;;;-145.18;100.00;46662.34;5071153;28;20104;-64
2023/07/17 05:29:33;;;;;;;17.50;6.10;;;;;;;-145.18;100.00;46652.59;5071537;28;20453;-64
2023/07/17 05:31:59;;;;;;;16.20;5.07;;;;;;;-145.18;100.00;46652.59;5072121;28;20050;-64
2023/07/17 05:34:24;;;;;;;16.90;5.27;;;;;;;-145.18;100.00;46656.50;5045813;28;20064;-64
2023/07/17 05:36:49;;;;;;;12.57;4.93;;;;;;;-145.18;100.00;46658.44;5073130;28;20042;-64
2023/07/17 05:39:15;;;;;;;16.50;5.80;;;;;;;-145.18;100.00;46658.44;5073195;28;20033;-64
2023/07/17 05:41:40;;;;;;;18.90;5.50;;;;;;;-145.18;100.00;46660.41;5071117;28;20392;-64
2023/07/17 05:44:05;;;;;;;16.03;5.60;;;;;;;-145.18;100.00;46656.50;5071338;28;20060;-64
2023/07/17 05:46:31;;;;;;;17.57;5.97;;;;;;;-145.18;100.00;46654.53;5071696;28;20388;-64
2023/07/17 05:48:56;;;;;;;15.37;5.90;;;;;;;-145.18;100.00;46656.50;5072269;28;20111;-64
2023/07/17 05:51:22;;;;;;;16.50;5.60;;;;;;;-145.18;100.00;46654.53;5072915;28;20035;-63
2023/07/17 05:53:47;;;;;;;18.00;5.23;;;;;;;-145.18;100.00;46658.44;5072507;28;20021;-63
2023/07/17 05:56:14;;;;;;;15.50;5.53;;;;;;;-145.18;100.00;46666.25;5072407;28;20020;-65
2023/07/17 05:58:41;;;;;;;17.60;5.73;;;;;;;-145.18;100.00;46656.50;5070972;28;20477;-64
2023/07/17 06:01:06;;;;;;;21.90;6.67;;;;;;;-145.18;100.00;46664.31;5059339;28;20043;-64
2023/07/17 06:03:31;;;;;;;14.53;5.40;;;;;;;-145.18;100.00;46668.22;5071295;28;20032;-64
2023/07/17 06:05:57;;;;;;;17.60;6.23;;;;;;;-145.18;100.00;46652.59;5072294;28;20032;-64
2023/07/17 06:08:22;;;;;;;18.00;6.13;;;;;;;-145.18;100.00;46660.41;5072482;28;20032;-63
2023/07/17 06:10:48;;;;;;;11.67;4.97;;;;;;;-145.18;100.00;46656.50;5072067;28;20534;-64
2023/07/17 06:13:16;;;;;;;17.63;5.80;;;;;;;-145.18;100.00;46662.34;5072483;28;20361;-64
2023/07/17 06:15:41;;;;;;;14.80;4.83;;;;;;;-145.18;100.00;46656.50;5072147;28;20025;-64
2023/07/17 06:18:07;;;;;;;12.50;5.40;;;;;;;-145.18;100.00;46654.53;5072041;28;20020;-64
2023/07/17 06:20:32;;;;;;;16.90;5.30;;;;;;;-145.18;100.00;46656.50;5071766;28;20105;-64
2023/07/17 06:22:59;;;;;;;17.27;5.37;;;;;;;-145.18;100.00;46648.69;5072021;28;20060;-62
2023/07/17 06:25:24;;;;;;;15.13;6.03;;;;;;;-145.18;100.00;46654.53;5072337;28;20052;-63
2023/07/17 06:27:49;;;;;;;13.83;5.90;;;;;;;-145.18;100.00;46650.63;5072221;28;20472;-65
2023/07/17 06:30:15;;;;;;;13.63;5.43;;;;;;;-145.18;100.00;46652.59;5070490;28;20056;-63
2023/07/17 06:32:40;;;;;;;12.80;5.00;;;;;;;-145.18;100.00;46656.50;5071863;28;20024;-64
2023/07/17 06:35:06;;;;;;;15.07;5.90;;;;;;;-145.18;100.00;46656.50;5072401;28;20044;-65
2023/07/17 06:37:31;;;;;;;16.43;4.97;;;;;;;-145.18;100.00;46658.44;5072106;28;20399;-62
2023/07/17 06:39:57;;;;;;;14.10;5.40;;;;;;;-145.18;100.00;46660.41;5072212;28;20094;-65
2023/07/17 06:42:22;;;;;;;12.43;4.90;;;;;;;-145.18;100.00;46662.34;5071767;28;20552;-65
2023/07/17 06:44:48;;;;;;;12.10;4.87;;;;;;;-145.18;100.00;46666.25;5072163;28;20024;-64
2023/07/17 06:47:13;;;;;;;12.53;4.70;;;;;;;-145.18;100.00;46664.31;5070435;28;20051;-65
2023/07/17 06:49:38;;;;;;;14.50;4.70;;;;;;;-145.18;100.00;46668.22;5071701;28;20028;-65
2023/07/17 06:52:04;;;;;;;10.07;4.77;;;;;;;-145.18;100.00;46664.31;5072209;28;20120;-65
2023/07/17 06:54:29;;;;;;;10.30;4.70;;;;;;;-145.18;100.00;46660.41;5070641;28;20391;-63
2023/07/17 06:56:55;;;;;;;14.37;4.73;;;;;;;-145.18;100.00;46662.34;5071902;28;20055;-64
2023/07/17 06:59:24;;;;;;;10.30;3.87;;;;;;;-145.18;100.00;46664.31;5071646;28;20036;-62
2023/07/17 07:01:49;;;;;;;16.80;4.17;;;;;;;-145.18;100.00;46664.31;5072030;28;20040;-65
2023/07/17 07:04:15;;;;;;;16.67;4.30;;;;;;;-145.18;100.00;46664.31;5071706;28;20464;-65
2023/07/17 07:06:40;;;;;;;9.57;3.83;;;;;;;-145.18;100.00;46664.31;5072030;28;20105;-65
2023/07/17 07:09:06;;;;;;;9.37;3.90;;;;;;;-145.18;100.00;46666.25;5071425;28;20039;-65
2023/07/17 07:11:31;;;;;;;15.50;4.63;;;;;;;-145.18;100.00;46664.31;5071427;28;20152;-63
2023/07/17 07:13:57;;;;;;;13.30;3.47;;;;;;;-145.18;100.00;46664.31;5071769;28;20032;-65
2023/07/17 07:16:22;;;;;;;9.47;4.17;;;;;;;-145.18;100.00;46662.34;5071829;28;20430;-65
2023/07/17 07:18:47;;;;;;;18.87;4.33;;;;;;;-145.18;100.00;46662.34;5071433;28;20039;-65
2023/07/17 07:21:13;;;;;;;11.87;4.13;;;;;;;-145.18;100.00;46644.78;5071483;28;20442;-64
2023/07/17 07:23:38;;;;;;;16.23;4.43;;;;;;;-145.18;100.00;46588.13;5069986;28;20037;-65
2023/07/17 07:26:03;;;;;;;13.70;4.93;;;;;;;-145.18;100.00;46580.31;5071670;28;20063;-65
2023/07/17 07:28:29;;;;;;;11.67;4.07;;;;;;;-145.18;100.00;46593.97;5071624;28;20417;-65
2023/07/17 07:30:56;;;;;;;14.10;4.93;;;;;;;-145.18;100.00;46615.47;5070219;28;20488;-64
2023/07/17 07:33:21;;;;;;;12.97;4.27;;;;;;;-145.18;100.00;46631.09;5071908;28;20032;-60
2023/07/17 07:35:47;;;;;;;15.03;4.37;;;;;;;-145.18;100.00;46629.13;5071613;28;20037;-60
2023/07/17 07:38:12;;;;;;;11.17;4.13;;;;;;;-145.18;100.00;46586.16;5071522;28;20029;-60
2023/07/17 07:40:37;;;;;;;6.67;3.30;;;;;;;-145.18;100.00;46560.78;5071405;28;20488;-61
2023/07/17 07:43:03;;;;;;;10.47;3.33;;;;;;;-145.18;100.00;46533.44;5071675;28;20029;-60
2023/07/17 07:45:28;;;;;;;10.20;3.50;;;;;;;-145.18;100.00;46527.56;5071448;28;20036;-60
2023/07/17 07:47:54;;;;;;;12.20;4.33;;;;;;;-145.18;100.00;46537.34;5069972;28;20111;-60
2023/07/17 07:50:21;;;;;;;12.40;3.70;;;;;;;-145.18;100.00;46531.47;5071680;28;20025;-60
2023/07/17 07:52:47;;;;;;;11.70;3.77;;;;;;;-145.18;100.00;46531.47;5071422;28;20044;-60
2023/07/17 07:55:12;;;;;;;9.70;3.70;;;;;;;-145.18;100.00;46537.34;5070400;28;20032;-60
2023/07/17 07:57:38;;;;;;;12.10;3.50;;;;;;;-145.18;100.00;46535.38;5071541;28;20492;-60
2023/07/17 08:00:04;;;;;;;13.47;3.50;;;;;;;-145.18;100.00;46535.38;5071371;28;20029;-60
2023/07/17 08:02:29;;;;;;;11.33;3.57;;;;;;;-145.18;100.00;46541.25;5071359;28;20399;-60
2023/07/17 08:04:55;;;;;;;10.53;3.07;;;;;;;-145.18;100.00;46537.34;5071740;28;20039;-60
2023/07/17 08:07:20;;;;;;;8.97;3.67;;;;;;;-145.18;100.00;46541.25;5073570;28;20035;-60
2023/07/17 08:09:46;;;;;;;7.80;3.53;;;;;;;-145.18;100.00;46533.44;5074994;28;20036;-60
2023/07/17 08:12:11;;;;;;;10.13;3.30;;;;;;;-145.18;100.00;46543.19;5073573;28;20056;-60
2023/07/17 08:14:36;;;;;;;11.07;2.90;;;;;;;-145.18;100.00;46543.19;5075054;28;20488;-60
2023/07/17 08:17:02;;;;;;;9.97;3.50;;;;;;;-145.18;100.00;46541.25;5074942;28;20417;-60
2023/07/17 08:19:28;;;;;;;8.30;3.43;;;;;;;-145.18;100.00;46531.47;5074506;28;20094;-60
2023/07/17 08:21:53;;;;;;;14.20;3.37;;;;;;;-145.18;100.00;46543.19;5074380;28;20079;-60
2023/07/17 08:24:18;;;;;;;10.17;2.73;;;;;;;-145.18;100.00;46531.47;5074616;28;20032;-60
2023/07/17 08:26:44;;;;;;;7.63;2.90;;;;;;;-145.18;100.00;46543.19;5069706;28;20029;-60
2023/07/17 08:29:10;;;;;;;8.37;2.87;;;;;;;-145.18;100.00;46535.38;5070822;28;20526;-61
2023/07/17 08:31:36;;;;;;;7.57;2.60;;;;;;;-145.18;100.00;46543.19;5059919;28;20024;-60
2023/07/17 08:34:05;;;;;;;5.50;2.70;;;;;;;-145.18;100.00;46547.09;5073469;28;20028;-60
2023/07/17 08:36:31;;;;;;;10.07;2.93;;;;;;;-145.18;100.00;46558.81;5073445;28;20514;-61
2023/07/17 08:38:57;;;;;;;6.87;2.90;;;;;;;-145.18;100.00;46547.09;5070444;28;20025;-60
2023/07/17 08:41:23;;;;;;;6.30;2.80;;;;;;;-145.18;100.00;46547.09;5073635;28;20465;-60
2023/07/17 08:43:49;;;;;;;18.07;3.40;;;;;;;-145.18;100.00;46547.09;5073822;28;20043;-60
2023/07/17 08:46:14;;;;;;;9.17;3.03;;;;;;;-145.18;100.00;46539.28;5071507;28;20032;-60
2023/07/17 08:48:43;;;;;;;11.03;3.03;;;;;;;-145.18;100.00;46549.06;5073960;28;20097;-61
2023/07/17 08:51:09;;;;;;;14.07;3.20;;;;;;;-145.18;100.00;46547.09;5070251;28;20361;-60
2023/07/17 08:53:37;;;;;;;10.97;2.87;;;;;;;-145.18;100.00;46541.25;5069434;28;20032;-60
2023/07/17 08:56:04;;;;;;;13.87;3.20;;;;;;;-145.18;100.00;46547.09;5073554;28;20029;-60
2023/07/17 08:58:30;;;;;;;9.77;2.73;;;;;;;-145.18;100.00;46547.09;5073663;28;20067;-60
2023/07/17 09:00:57;;;;;;;16.70;3.73;;;;;;;-145.18;100.00;46529.53;5073606;28;20017;-60
2023/07/17 09:03:23;;;;;;;11.80;2.93;;;;;;;-145.18;100.00;46562.72;5069784;28;20377;-60
2023/07/17 09:05:49;;;;;;;12.33;3.13;;;;;;;-145.18;100.00;46564.69;5072761;28;20036;-60
2023/07/17 09:08:15;;;;;;;12.20;3.03;;;;;;;-145.18;100.00;46556.88;5073586;28;20036;-60
2023/07/17 09:10:40;;;;;;;7.47;3.00;;;;;;;-145.18;100.00;46552.97;5066978;28;20118;-61
2023/07/17 09:13:06;;;;;;;11.03;2.97;;;;;;;-145.18;100.00;46625.22;5073222;28;20037;-60
2023/07/17 09:15:33;;;;;;;6.13;2.70;;;;;;;-145.18;100.00;46633.06;5064850;28;20031;-60
2023/07/17 09:18:00;;;;;;;11.60;3.27;;;;;;;-145.18;100.00;46720.94;5072603;28;20027;-60
2023/07/17 09:20:26;;;;;;;11.43;2.77;;;;;;;-145.18;100.00;46754.16;5075694;28;20033;-60
2023/07/17 09:22:58;;;;;;;11.33;2.63;;;;;;;-145.18;100.00;46707.28;5063718;28;20567;-60
2023/07/17 09:25:27;;;;;;;7.90;3.27;;;;;;;-145.18;100.00;47035.44;5072321;28;20039;-60
2023/07/17 09:27:53;;;;;;;9.77;2.33;;;;;;;-145.18;100.00;47191.75;5073032;28;20040;-61
2023/07/17 09:30:24;;;;;;;9.17;2.47;;;;;;;-145.18;100.00;47045.22;5073270;28;20096;-60
2023/07/17 09:32:50;;;;;;;8.87;3.03;;;;;;;-145.18;100.00;47180.03;5062639;28;20032;-60
2023/07/17 09:35:19;;;;;;;7.07;2.67;;;;;;;-145.18;100.00;47121.41;5072892;28;20032;-61
2023/07/17 09:37:45;;;;;;;9.53;2.73;;;;;;;-145.18;100.00;47076.47;5071624;28;20047;-60
2023/07/17 09:40:12;;;;;;;11.13;2.87;;;;;;;-145.18;100.00;47070.63;5073004;28;20032;-60
2023/07/17 09:42:43;;;;;;;7.40;2.80;;;;;;;-145.18;100.00;47074.53;5054973;28;20040;-60
2023/07/17 09:45:14;;;;;;;7.17;3.40;;;;;;;-145.18;100.00;47103.81;5072925;28;20027;-59
2023/07/17 09:47:40;;;;;;;8.33;2.67;;;;;;;-145.18;100.00;47084.28;5072369;28;20392;-60
2023/07/17 09:50:07;;;;;;;4.90;2.37;;;;;;;-145.18;100.00;47082.34;5072393;28;20039;-60
2023/07/17 09:52:33;;;;;;;10.23;2.93;;;;;;;-145.18;100.00;47096.00;5072736;28;20047;-64
2023/07/17 09:55:01;;;;;;;9.93;3.30;;;;;;;-145.18;100.00;47066.72;5069443;28;20110;-64
2023/07/17 09:57:33;;;;;;;10.03;3.13;;;;;;;-145.18;100.00;47066.72;5065904;28;20052;-64
2023/07/17 10:00:17;;;;;;;10.20;3.10;;;;;;;-145.18;100.00;47056.94;5072540;28;20427;-64
2023/07/17 10:02:57;;;;;;;7.60;2.83;;;;;;;-145.18;100.00;47082.34;5083406;28;20043;-64
2023/07/17 10:05:24;;;;;;;7.93;3.00;;;;;;;-145.18;100.00;47056.94;5068772;28;20028;-64
2023/07/17 10:07:51;;;;;;;10.70;2.70;;;;;;;-145.18;100.00;47080.38;5070951;28;20529;-64
2023/07/17 10:10:17;;;;;;;17.17;3.10;;;;;;;-145.18;100.00;47064.75;5072135;28;20472;-64
2023/07/17 10:12:44;;;;;;;17.77;3.57;;;;;;;-145.18;100.00;47039.34;5072289;28;20028;-64
2023/07/17 10:15:11;;;;;;;16.30;4.10;;;;;;;-145.18;100.00;47070.63;5071936;28;20060;-64
2023/07/17 10:17:36;;;;;;;6.83;3.07;;;;;;;-145.18;100.00;47076.47;5072166;28;20043;-64
2023/07/17 10:20:10;;;;;;;8.23;2.60;;;;;;;-145.18;100.00;47068.66;5071861;28;20016;-64
2023/07/17 10:22:45;;;;;;;7.00;2.57;;;;;;;-145.18;100.00;47097.97;5070237;28;20056;-64
2023/07/17 10:25:16;;;;;;;8.97;2.93;;;;;;;-145.18;100.00;47058.91;5069246;28;20430;-64
2023/07/17 10:27:45;;;;;;;4.80;2.50;;;;;;;-145.18;100.00;47017.88;5073064;28;20062;-64
2023/07/17 10:30:45;;;;;;;7.13;2.57;;;;;;;-145.18;100.00;47010.06;5071901;28;20479;-64
2023/07/17 10:33:14;;;;;;;7.40;3.27;;;;;;;-145.18;100.00;47039.34;5071410;28;20035;-64
2023/07/17 10:35:47;;;;;;;5.77;2.57;;;;;;;-145.18;100.00;47062.81;5071484;28;20377;-65
2023/07/17 10:38:17;;;;;;;7.77;3.03;;;;;;;-145.18;100.00;47066.72;5070497;28;20119;-64
2023/07/17 10:40:42;;;;;;;8.17;2.80;;;;;;;-145.18;100.00;47070.63;5071296;28;20028;-64
2023/07/17 10:43:20;;;;;;;8.83;3.43;;;;;;;-145.18;100.00;47066.72;5071655;28;20025;-64
2023/07/17 10:45:47;;;;;;;9.67;3.43;;;;;;;-145.18;100.00;47058.91;5064672;28;20115;-64
2023/07/17 10:48:13;;;;;;;7.37;3.30;;;;;;;-145.18;100.00;47070.63;5071996;28;20033;-64
2023/07/17 10:50:50;;;;;;;7.73;3.70;;;;;;;-145.18;100.00;47070.63;5071432;28;20024;-64
2023/07/17 10:53:15;;;;;;;5.77;3.17;;;;;;;-145.18;100.00;47097.97;5071775;28;20059;-64
2023/07/17 10:55:42;;;;;;;9.40;3.13;;;;;;;-145.18;100.00;47090.16;5071685;28;20486;-64
2023/07/17 10:58:08;;;;;;;11.50;3.33;;;;;;;-145.18;100.00;47097.97;5071543;28;20165;-64
2023/07/17 11:00:34;;;;;;;10.17;3.67;;;;;;;-145.18;100.00;47097.97;5071432;28;20108;-65